Аэропорт: Ханты-Мансийск. Ханты-Мансийск

ICAO: USHH

METAR:
2018/05/20 23:00
USHH 202300Z 33003G08MPS 290V050 9999 BKN006CB 06/05 Q1004 R24/190060 TEMPO 1000 SHRA BKN003CB RMK QFE749
METAR:
2018/05/20 20:00
TAF 
      AMD USHH 202005Z 2020/2121 34003G08MPS 3100 -SHRA BR SCT007 BKN015CB 
      TEMPO 2020/2103 0500 FG VV002